createdAt,value
2019-03-21T00:01:52.461Z,15.68
2019-03-21T00:04:20.949Z,17.03
2019-03-21T00:06:49.450Z,13.80
2019-03-21T00:09:19.397Z,15.35
2019-03-21T00:12:03.147Z,12.70
2019-03-21T00:14:37.240Z,11.83
2019-03-21T00:17:08.777Z,10.90
2019-03-21T00:19:37.331Z,12.20
2019-03-21T00:22:06.156Z,14.00
2019-03-21T00:24:34.720Z,15.90
2019-03-21T00:27:03.328Z,14.05
2019-03-21T00:29:31.902Z,11.75
2019-03-21T00:32:00.444Z,11.83
2019-03-21T00:34:28.941Z,11.63
2019-03-21T00:36:57.484Z,11.43
2019-03-21T00:39:32.671Z,9.70
2019-03-21T00:41:56.175Z,11.03
2019-03-21T00:44:24.662Z,13.03
2019-03-21T00:46:53.222Z,10.50
2019-03-21T00:49:21.789Z,10.85
2019-03-21T00:51:50.263Z,11.67
2019-03-21T00:54:19.385Z,13.53
2019-03-21T00:56:47.940Z,14.80
2019-03-21T00:59:16.490Z,15.50
2019-03-21T01:01:44.981Z,23.22
2019-03-21T01:04:13.465Z,17.75
2019-03-21T01:06:42.031Z,11.75
2019-03-21T01:09:13.881Z,13.63
2019-03-21T01:11:42.446Z,13.80
2019-03-21T01:14:11.028Z,12.40
2019-03-21T01:16:39.585Z,12.20
2019-03-21T01:19:08.084Z,13.10
2019-03-21T01:21:36.639Z,12.68
2019-03-21T01:24:05.368Z,16.75
2019-03-21T01:26:33.949Z,15.40
2019-03-21T01:29:02.502Z,14.67
2019-03-21T01:31:30.998Z,13.18
2019-03-21T01:33:59.555Z,10.93
2019-03-21T01:36:28.990Z,10.55
2019-03-21T01:38:57.529Z,10.93
2019-03-21T01:41:26.088Z,12.53
2019-03-21T01:43:54.562Z,11.33
2019-03-21T01:46:26.649Z,11.50
2019-03-21T01:48:55.206Z,10.15
2019-03-21T01:51:23.845Z,10.88
2019-03-21T01:53:53.931Z,8.78
2019-03-21T01:56:22.486Z,9.33
2019-03-21T01:58:51.426Z,8.00
2019-03-21T02:01:19.974Z,11.03
2019-03-21T02:03:48.545Z,13.17
2019-03-21T02:06:17.112Z,12.43
2019-03-21T02:08:45.591Z,10.47
2019-03-21T02:11:14.185Z,11.10
2019-03-21T02:13:42.740Z,12.57
2019-03-21T02:16:11.317Z,13.28
2019-03-21T02:18:39.864Z,10.45
2019-03-21T02:21:08.399Z,9.85
2019-03-21T02:23:36.970Z,10.33
2019-03-21T02:26:05.576Z,9.23
2019-03-21T02:28:34.069Z,12.00
2019-03-21T02:31:02.613Z,9.93
2019-03-21T02:33:45.114Z,9.60
2019-03-21T02:36:14.253Z,13.87
2019-03-21T02:38:45.703Z,9.90
2019-03-21T02:41:16.069Z,11.15
2019-03-21T02:43:44.562Z,9.50
2019-03-21T02:46:13.114Z,10.32
2019-03-21T02:48:41.670Z,12.78
2019-03-21T02:51:10.290Z,11.33
2019-03-21T02:53:38.839Z,9.87
2019-03-21T02:56:17.003Z,10.07
2019-03-21T02:58:45.555Z,9.55
2019-03-21T03:01:14.166Z,10.93
2019-03-21T03:03:42.741Z,10.07
2019-03-21T03:06:11.277Z,10.65
2019-03-21T03:08:39.886Z,9.80
2019-03-21T03:11:23.544Z,12.05
2019-03-21T03:13:52.290Z,9.85
2019-03-21T03:16:22.670Z,12.58
2019-03-21T03:18:51.408Z,8.15
2019-03-21T03:21:19.940Z,9.90
2019-03-21T03:23:48.497Z,11.30
2019-03-21T03:26:17.070Z,10.60
2019-03-21T03:28:47.313Z,9.93
2019-03-21T03:31:15.885Z,11.63
2019-03-21T03:33:44.967Z,9.33
2019-03-21T03:36:15.442Z,12.40
2019-03-21T03:38:44.024Z,9.33
2019-03-21T03:41:14.690Z,11.03
2019-03-21T03:43:43.298Z,9.58
2019-03-21T03:46:11.831Z,10.68
2019-03-21T03:48:40.813Z,9.40
2019-03-21T03:51:09.365Z,8.83
2019-03-21T03:53:37.932Z,10.58
2019-03-21T03:56:06.461Z,9.70
2019-03-21T03:58:43.404Z,11.63
2019-03-21T04:01:12.154Z,9.90
2019-03-21T04:03:40.723Z,9.90
2019-03-21T04:06:09.263Z,11.63
2019-03-21T04:08:37.830Z,10.37
2019-03-21T04:11:06.450Z,10.17
2019-03-21T04:13:35.387Z,10.40
2019-03-21T04:16:04.005Z,12.03
2019-03-21T04:18:32.563Z,9.87
2019-03-21T04:21:04.513Z,11.50
2019-03-21T04:23:33.074Z,10.13
2019-03-21T04:26:10.348Z,9.00
2019-03-21T04:28:39.056Z,11.80
2019-03-21T04:31:08.077Z,9.53
2019-03-21T04:33:36.639Z,10.72
2019-03-21T04:36:05.177Z,9.17
2019-03-21T04:38:33.669Z,11.97
2019-03-21T04:41:02.236Z,10.60
2019-03-21T04:43:30.817Z,9.53
2019-03-21T04:46:03.667Z,13.28
2019-03-21T04:48:29.578Z,9.60
2019-03-21T04:50:58.116Z,12.93
2019-03-21T04:53:26.613Z,34.80
2019-03-21T04:55:55.102Z,43.80
2019-03-21T04:58:23.673Z,99.53
2019-03-21T05:00:54.461Z,58.50
2019-03-21T05:03:30.595Z,43.68
2019-03-21T05:05:59.630Z,41.28
2019-03-21T05:08:28.216Z,40.50
2019-03-21T05:10:56.877Z,100.30
2019-03-21T05:13:25.465Z,56.85
2019-03-21T05:15:54.811Z,26.17
2019-03-21T05:18:41.413Z,16.77
2019-03-21T05:21:13.052Z,28.65
2019-03-21T05:23:41.616Z,21.10
2019-03-21T05:26:10.157Z,16.87
2019-03-21T05:28:38.641Z,9.20
2019-03-21T05:31:10.290Z,10.10
2019-03-21T05:33:38.857Z,13.53
2019-03-21T05:36:07.325Z,10.45
2019-03-21T05:38:35.810Z,7.00
2019-03-21T05:41:04.279Z,8.08
2019-03-21T05:43:52.818Z,6.92
2019-03-21T05:46:26.439Z,7.73
2019-03-21T05:48:51.654Z,7.40
2019-03-21T05:51:20.212Z,11.00
2019-03-21T05:53:48.776Z,16.82
2019-03-21T05:56:17.247Z,13.32
2019-03-21T05:58:45.800Z,11.90
2019-03-21T06:01:14.681Z,7.97
2019-03-21T06:03:51.242Z,10.50
2019-03-21T06:06:25.539Z,8.90
2019-03-21T06:08:54.100Z,9.58
2019-03-21T06:11:22.914Z,10.00
2019-03-21T06:13:51.450Z,8.83
2019-03-21T06:16:20.028Z,8.50
2019-03-21T06:19:18.961Z,8.10
2019-03-21T06:22:11.743Z,9.77
2019-03-21T06:25:01.619Z,9.17
2019-03-21T06:27:32.873Z,9.00
2019-03-21T06:30:01.435Z,10.10
2019-03-21T06:32:30.203Z,11.30
2019-03-21T06:34:58.780Z,8.90
2019-03-21T06:37:28.922Z,8.80
2019-03-21T06:39:57.747Z,12.37
2019-03-21T06:42:26.310Z,8.40
2019-03-21T06:45:14.231Z,10.10
2019-03-21T06:47:42.776Z,8.10
2019-03-21T06:50:11.346Z,7.97
2019-03-21T06:52:39.809Z,9.53
2019-03-21T06:55:08.372Z,8.80
2019-03-21T06:57:37.293Z,8.50
2019-03-21T07:00:08.017Z,7.33
2019-03-21T07:02:36.493Z,8.63
2019-03-21T07:05:07.089Z,9.63
2019-03-21T07:07:35.677Z,9.03
2019-03-21T07:10:06.981Z,11.00
2019-03-21T07:12:35.447Z,9.53
2019-03-21T07:15:07.093Z,10.10
2019-03-21T07:17:35.635Z,10.30
2019-03-21T07:20:09.220Z,10.43
2019-03-21T07:22:38.621Z,10.60
2019-03-21T07:25:08.653Z,9.53
2019-03-21T07:27:37.213Z,9.38
2019-03-21T07:30:08.617Z,9.53
2019-03-21T07:32:37.230Z,8.67
2019-03-21T07:35:08.022Z,12.80
2019-03-21T07:37:36.609Z,7.87
2019-03-21T07:40:11.339Z,6.80
2019-03-21T07:42:39.906Z,6.85
2019-03-21T07:45:10.892Z,7.40
2019-03-21T07:47:39.904Z,8.57
2019-03-21T07:50:13.321Z,6.80
2019-03-21T07:52:41.929Z,8.70
2019-03-21T07:55:11.546Z,7.30
2019-03-21T07:57:40.102Z,6.80
2019-03-21T08:00:20.609Z,6.53
2019-03-21T08:02:49.473Z,7.03
2019-03-21T08:05:17.994Z,5.53
2019-03-21T08:07:46.553Z,7.23
2019-03-21T08:10:15.269Z,5.47
2019-03-21T08:12:43.829Z,7.63
2019-03-21T08:15:15.388Z,7.85
2019-03-21T08:17:44.025Z,5.70
2019-03-21T08:20:14.720Z,7.80
2019-03-21T08:22:43.337Z,6.67
2019-03-21T08:25:12.250Z,7.92
2019-03-21T08:27:41.099Z,6.53
2019-03-21T08:30:24.698Z,7.37
2019-03-21T08:32:53.292Z,8.75
2019-03-21T08:35:21.837Z,7.65
2019-03-21T08:37:50.327Z,6.37
2019-03-21T08:40:18.879Z,6.20
2019-03-21T08:42:47.441Z,8.20
2019-03-21T08:45:16.008Z,7.60
2019-03-21T08:47:44.581Z,9.30
2019-03-21T08:50:13.770Z,7.72
2019-03-21T08:52:42.330Z,7.83
2019-03-21T08:55:11.154Z,11.15
2019-03-21T08:57:39.730Z,6.50
2019-03-21T09:00:15.836Z,7.40
2019-03-21T09:02:44.353Z,6.80
2019-03-21T09:05:12.966Z,8.87
2019-03-21T09:07:41.534Z,8.07
2019-03-21T09:10:11.452Z,7.37
2019-03-21T09:12:42.499Z,9.35
2019-03-21T09:15:10.487Z,10.30
2019-03-21T09:17:39.050Z,9.40
2019-03-21T09:20:08.643Z,11.03
2019-03-21T09:22:37.285Z,10.65
2019-03-21T09:25:09.264Z,10.50
2019-03-21T09:27:37.836Z,11.78
2019-03-21T09:30:09.453Z,11.13
2019-03-21T09:32:38.092Z,8.80
2019-03-21T09:35:07.481Z,9.23
2019-03-21T09:37:36.035Z,8.30
2019-03-21T09:40:07.546Z,8.00
2019-03-21T09:42:36.453Z,8.93
2019-03-21T09:45:07.045Z,9.93
2019-03-21T09:47:35.613Z,9.50
2019-03-21T09:50:06.608Z,9.03
2019-03-21T09:52:35.175Z,9.70
2019-03-21T09:55:05.657Z,9.00
2019-03-21T09:57:34.156Z,9.35
2019-03-21T10:00:02.807Z,8.47
2019-03-21T10:02:31.383Z,6.53
2019-03-21T10:04:59.917Z,6.80
2019-03-21T10:07:28.405Z,8.00
2019-03-21T10:09:57.024Z,8.00
2019-03-21T10:12:25.603Z,6.63
2019-03-21T10:14:54.147Z,8.33
2019-03-21T10:17:22.700Z,8.93
2019-03-21T10:19:51.265Z,9.53
2019-03-21T10:22:19.809Z,9.10
2019-03-21T10:24:48.377Z,8.30
2019-03-21T10:27:16.848Z,10.40
2019-03-21T10:29:45.408Z,10.20
2019-03-21T10:32:14.768Z,8.10
2019-03-21T10:34:43.484Z,7.37
2019-03-21T10:37:12.139Z,7.42
2019-03-21T10:39:40.649Z,7.30
2019-03-21T10:42:09.201Z,5.80
2019-03-21T10:44:37.768Z,7.58
2019-03-21T10:47:06.237Z,8.40
2019-03-21T10:49:34.815Z,6.05
2019-03-21T10:52:03.368Z,7.28
2019-03-21T10:54:31.934Z,8.23
2019-03-21T10:57:00.486Z,8.90
2019-03-21T10:59:29.060Z,7.03
2019-03-21T11:02:06.845Z,8.10
2019-03-21T11:04:27.827Z,9.05
2019-03-21T11:07:02.289Z,8.38
2019-03-21T11:09:31.005Z,7.90
2019-03-21T11:12:00.029Z,8.23
2019-03-21T11:14:28.895Z,8.45
2019-03-21T11:16:57.718Z,6.27
2019-03-21T11:19:26.565Z,6.65
2019-03-21T11:22:05.846Z,8.53
2019-03-21T11:24:25.724Z,6.97
2019-03-21T11:26:54.278Z,11.95
2019-03-21T11:29:22.837Z,5.90
2019-03-21T11:31:51.309Z,9.25
2019-03-21T11:34:19.797Z,6.15
2019-03-21T11:36:48.274Z,6.53
2019-03-21T11:39:16.841Z,8.20
2019-03-21T11:41:45.376Z,8.43
2019-03-21T11:44:13.961Z,7.25
2019-03-21T11:46:42.494Z,5.65
2019-03-21T11:49:11.052Z,7.53
2019-03-21T11:51:40.213Z,6.67
2019-03-21T11:54:08.781Z,7.10
2019-03-21T11:56:37.285Z,7.90
2019-03-21T11:59:05.812Z,5.37
2019-03-21T12:01:34.305Z,6.95
2019-03-21T12:04:02.777Z,5.90
2019-03-21T12:06:31.270Z,5.60
2019-03-21T12:08:59.815Z,5.50
2019-03-21T12:11:28.374Z,5.90
2019-03-21T12:13:56.925Z,5.20
2019-03-21T12:16:25.493Z,6.50
2019-03-21T12:18:54.038Z,5.60
2019-03-21T12:21:22.595Z,6.42
2019-03-21T12:23:51.420Z,5.47
2019-03-21T12:26:19.995Z,6.85
2019-03-21T12:28:48.543Z,4.90
2019-03-21T12:31:17.108Z,6.45
2019-03-21T12:33:45.657Z,5.10
2019-03-21T12:36:14.344Z,6.58
2019-03-21T12:38:42.889Z,5.00
2019-03-21T12:41:11.390Z,4.80
2019-03-21T12:43:39.861Z,4.90
2019-03-21T12:46:08.502Z,4.90
2019-03-21T12:48:36.978Z,5.50
2019-03-21T12:51:05.546Z,4.63
2019-03-21T12:53:34.081Z,5.12
2019-03-21T12:56:02.656Z,5.05
2019-03-21T12:58:31.190Z,4.75
2019-03-21T13:00:59.755Z,4.57
2019-03-21T13:03:28.311Z,4.53
2019-03-21T13:05:57.138Z,4.40
2019-03-21T13:08:33.665Z,5.15
2019-03-21T13:10:55.912Z,5.10
2019-03-21T13:13:24.474Z,6.10
2019-03-21T13:15:53.021Z,6.08
2019-03-21T13:18:21.488Z,6.47
2019-03-21T13:20:49.988Z,5.10
2019-03-21T13:23:18.538Z,5.10
2019-03-21T13:25:47.111Z,4.90
2019-03-21T13:28:16.250Z,4.70
2019-03-21T13:30:44.814Z,4.55
2019-03-21T13:33:13.366Z,6.35
2019-03-21T13:35:41.933Z,4.70
2019-03-21T13:38:11.106Z,5.30
2019-03-21T13:40:39.665Z,5.37
2019-03-21T13:43:08.234Z,5.60
2019-03-21T13:45:36.752Z,5.10
2019-03-21T13:48:10.630Z,5.55
2019-03-21T13:50:39.204Z,5.60
2019-03-21T13:53:18.201Z,5.72
2019-03-21T13:55:38.025Z,6.67
2019-03-21T13:58:06.498Z,6.92
2019-03-21T14:00:35.148Z,5.67
2019-03-21T14:03:03.725Z,5.80
2019-03-21T14:05:32.384Z,6.40
2019-03-21T14:08:00.949Z,5.40
2019-03-21T14:10:32.070Z,5.75
2019-03-21T14:12:59.625Z,5.90
2019-03-21T14:15:28.164Z,5.87
2019-03-21T14:17:56.654Z,7.83
2019-03-21T14:20:25.198Z,5.90
2019-03-21T14:22:53.785Z,7.35
2019-03-21T14:25:22.320Z,5.77
2019-03-21T14:27:50.817Z,6.33
2019-03-21T14:30:19.426Z,6.20
2019-03-21T14:32:47.916Z,6.35
2019-03-21T14:35:17.072Z,5.83
2019-03-21T14:37:45.552Z,6.37
2019-03-21T14:40:15.361Z,6.10
2019-03-21T14:42:44.193Z,5.60
2019-03-21T14:45:15.276Z,7.33
2019-03-21T14:47:43.900Z,5.28
2019-03-21T14:50:17.286Z,6.08
2019-03-21T14:52:46.220Z,5.10
2019-03-21T14:55:15.506Z,6.35
2019-03-21T14:57:44.072Z,5.17
2019-03-21T15:00:15.723Z,4.92
2019-03-21T15:02:44.281Z,4.97
2019-03-21T15:05:13.875Z,5.15
2019-03-21T15:07:42.506Z,5.50
2019-03-21T15:10:15.817Z,5.75
2019-03-21T15:12:44.459Z,5.10
2019-03-21T15:15:15.218Z,4.45
2019-03-21T15:17:43.861Z,4.30
2019-03-21T15:20:16.916Z,4.80
2019-03-21T15:22:45.481Z,5.37
2019-03-21T15:25:14.375Z,4.40
2019-03-21T15:27:43.075Z,4.73
2019-03-21T15:30:19.711Z,4.53
2019-03-21T15:32:48.321Z,4.33
2019-03-21T15:35:17.852Z,4.17
2019-03-21T15:37:46.599Z,4.63
2019-03-21T15:40:16.021Z,4.75
2019-03-21T15:42:44.670Z,4.60
2019-03-21T15:45:22.665Z,4.12
2019-03-21T15:47:48.154Z,4.25
2019-03-21T15:50:38.143Z,4.28
2019-03-21T15:53:07.178Z,4.40
2019-03-21T15:55:35.902Z,4.60
2019-03-21T15:58:04.776Z,4.40
2019-03-21T16:00:41.590Z,4.60
2019-03-21T16:03:11.317Z,4.03
2019-03-21T16:05:40.454Z,5.10
2019-03-21T16:08:09.462Z,4.07
2019-03-21T16:10:38.205Z,4.58
2019-03-21T16:13:08.664Z,4.20
2019-03-21T16:15:37.196Z,5.62
2019-03-21T16:18:05.868Z,3.60
2019-03-21T16:20:34.674Z,4.17
2019-03-21T16:23:03.420Z,3.80
2019-03-21T16:25:32.045Z,4.33
2019-03-21T16:28:00.520Z,4.30
2019-03-21T16:30:29.087Z,4.60
2019-03-21T16:32:57.634Z,5.30
2019-03-21T16:35:26.373Z,5.40
2019-03-21T16:37:54.855Z,4.50
2019-03-21T16:40:23.494Z,5.05
2019-03-21T16:42:51.965Z,4.20
2019-03-21T16:45:21.424Z,4.08
2019-03-21T16:47:50.099Z,4.87
2019-03-21T16:50:18.661Z,4.60
2019-03-21T16:52:47.138Z,7.27
2019-03-21T16:55:15.717Z,4.90
2019-03-21T16:57:44.324Z,4.50
2019-03-21T17:00:19.886Z,6.47
2019-03-21T17:02:48.616Z,4.63
2019-03-21T17:05:17.250Z,3.97
2019-03-21T17:07:45.793Z,4.77
2019-03-21T17:10:15.703Z,4.33
2019-03-21T17:12:44.276Z,5.40
2019-03-21T17:15:13.974Z,4.58
2019-03-21T17:17:42.474Z,5.93
2019-03-21T17:20:12.165Z,5.93
2019-03-21T17:22:40.732Z,5.00
2019-03-21T17:25:09.614Z,5.80
2019-03-21T17:27:38.164Z,6.45
2019-03-21T17:30:14.390Z,7.20
2019-03-21T17:32:43.062Z,5.05
2019-03-21T17:35:12.078Z,5.47
2019-03-21T17:37:40.632Z,6.30
2019-03-21T17:40:13.959Z,6.95
2019-03-21T17:42:42.523Z,5.35
2019-03-21T17:45:14.121Z,5.17
2019-03-21T17:47:42.757Z,5.20
2019-03-21T17:50:13.641Z,5.87
2019-03-21T17:52:42.343Z,7.42
2019-03-21T17:55:12.937Z,5.80
2019-03-21T17:57:41.640Z,6.20
2019-03-21T18:00:16.126Z,6.00
2019-03-21T18:02:45.449Z,5.72
2019-03-21T18:05:14.258Z,7.87
2019-03-21T18:07:42.815Z,6.43
2019-03-21T18:10:17.417Z,6.10
2019-03-21T18:12:45.971Z,6.30
2019-03-21T18:15:14.592Z,6.63
2019-03-21T18:17:43.140Z,5.65
2019-03-21T18:20:11.634Z,6.10
2019-03-21T18:22:40.177Z,6.53
2019-03-21T18:25:09.014Z,5.35
2019-03-21T18:27:37.663Z,5.13
2019-03-21T18:30:07.670Z,7.62
2019-03-21T18:32:36.209Z,6.72
2019-03-21T18:35:06.146Z,7.50
2019-03-21T18:37:34.910Z,7.30
2019-03-21T18:40:03.698Z,5.77
2019-03-21T18:42:32.329Z,6.42
2019-03-21T18:45:00.842Z,6.57
2019-03-21T18:47:29.390Z,5.93
2019-03-21T18:49:57.910Z,5.63
2019-03-21T18:52:26.450Z,5.60
2019-03-21T18:55:05.754Z,7.28
2019-03-21T18:57:25.201Z,6.03
2019-03-21T18:59:54.434Z,6.42
2019-03-21T19:02:22.988Z,5.23
2019-03-21T19:04:52.472Z,4.73
2019-03-21T19:07:20.933Z,6.30
2019-03-21T19:09:49.514Z,6.20
2019-03-21T19:12:17.986Z,5.67
2019-03-21T19:14:46.529Z,5.93
2019-03-21T19:17:15.038Z,6.22
2019-03-21T19:19:43.505Z,4.83
2019-03-21T19:22:12.171Z,5.80
2019-03-21T19:24:40.735Z,4.10
2019-03-21T19:27:09.259Z,4.80
2019-03-21T19:29:37.822Z,4.80
2019-03-21T19:32:06.394Z,7.60
2019-03-21T19:34:34.992Z,4.75
2019-03-21T19:37:03.554Z,5.20
2019-03-21T19:39:32.092Z,5.20
2019-03-21T19:42:00.587Z,5.30
2019-03-21T19:44:29.133Z,5.60
2019-03-21T19:46:57.693Z,4.67
2019-03-21T19:49:26.168Z,6.80
2019-03-21T19:51:54.800Z,4.80
2019-03-21T19:54:23.269Z,7.30
2019-03-21T19:56:51.757Z,6.20
2019-03-21T19:59:20.232Z,6.97
2019-03-21T20:01:48.803Z,6.25
2019-03-21T20:04:17.337Z,6.77
2019-03-21T20:06:45.902Z,6.50
2019-03-21T20:09:14.393Z,5.43
2019-03-21T20:11:42.893Z,7.83
2019-03-21T20:14:11.505Z,7.60
2019-03-21T20:16:40.025Z,5.78
2019-03-21T20:19:08.564Z,10.48
2019-03-21T20:21:47.402Z,7.70
2019-03-21T20:24:07.253Z,10.90
2019-03-21T20:26:35.754Z,7.50
2019-03-21T20:29:04.384Z,8.27
2019-03-21T20:31:32.971Z,8.13
2019-03-21T20:34:01.517Z,8.20
2019-03-21T20:36:30.080Z,8.13
2019-03-21T20:38:58.630Z,5.87
2019-03-21T20:41:27.300Z,7.40
2019-03-21T20:43:55.769Z,8.15
2019-03-21T20:46:24.262Z,6.95
2019-03-21T20:48:51.796Z,7.62
2019-03-21T20:51:20.395Z,9.78
2019-03-21T20:53:48.941Z,7.33
2019-03-21T20:56:17.435Z,6.70
2019-03-21T20:58:45.987Z,8.48
2019-03-21T21:01:14.553Z,9.75
2019-03-21T21:03:43.105Z,9.50
2019-03-21T21:06:11.600Z,10.55
2019-03-21T21:08:40.269Z,10.05
2019-03-21T21:11:09.008Z,7.83
2019-03-21T21:13:37.496Z,9.20
2019-03-21T21:16:05.991Z,9.17
2019-03-21T21:18:34.549Z,9.50
2019-03-21T21:21:03.241Z,8.15
2019-03-21T21:23:31.752Z,8.10
2019-03-21T21:26:05.330Z,8.20
2019-03-21T21:28:30.501Z,8.25
2019-03-21T21:30:59.050Z,10.18
2019-03-21T21:33:27.613Z,9.77
2019-03-21T21:35:56.217Z,10.23
2019-03-21T21:38:24.709Z,10.60
2019-03-21T21:40:53.267Z,10.10
2019-03-21T21:43:21.850Z,11.37
2019-03-21T21:45:50.386Z,12.17
2019-03-21T21:48:19.046Z,15.13
2019-03-21T21:51:06.941Z,9.97
2019-03-21T21:53:35.505Z,10.83
2019-03-21T21:56:04.049Z,8.65
2019-03-21T21:58:32.620Z,10.07
2019-03-21T22:01:01.091Z,10.87
2019-03-21T22:03:29.806Z,9.20
2019-03-21T22:05:58.335Z,9.57
2019-03-21T22:08:26.825Z,9.98
2019-03-21T22:10:55.373Z,18.90
2019-03-21T22:13:23.971Z,19.80
2019-03-21T22:15:52.510Z,22.93
2019-03-21T22:18:21.013Z,16.30
2019-03-21T22:20:49.492Z,16.00
2019-03-21T22:23:18.065Z,12.00
2019-03-21T22:25:46.611Z,11.10
2019-03-21T22:28:15.176Z,10.53
2019-03-21T22:30:43.723Z,11.10
2019-03-21T22:33:12.304Z,10.43
2019-03-21T22:35:40.858Z,10.05
2019-03-21T22:38:09.409Z,11.00
2019-03-21T22:40:37.873Z,10.43
2019-03-21T22:43:06.380Z,14.60
2019-03-21T22:45:34.947Z,12.03
2019-03-21T22:48:03.596Z,12.93
2019-03-21T22:50:32.171Z,13.00
2019-03-21T22:53:00.706Z,11.77
2019-03-21T22:55:29.257Z,15.05
2019-03-21T22:57:57.762Z,13.23
2019-03-21T23:00:40.015Z,14.18
2019-03-21T23:03:08.754Z,12.10
2019-03-21T23:05:37.306Z,14.93
2019-03-21T23:08:06.021Z,13.17
2019-03-21T23:10:34.565Z,12.00
2019-03-21T23:13:03.084Z,11.60
2019-03-21T23:15:31.625Z,10.93
2019-03-21T23:18:00.112Z,12.30
2019-03-21T23:20:28.669Z,12.20
2019-03-21T23:22:57.382Z,11.95
2019-03-21T23:25:25.858Z,14.03
2019-03-21T23:27:54.429Z,13.60
2019-03-21T23:30:22.985Z,14.50
2019-03-21T23:32:51.552Z,13.63
2019-03-21T23:35:20.102Z,14.05
2019-03-21T23:37:48.675Z,11.80
2019-03-21T23:40:17.291Z,11.60
2019-03-21T23:42:45.854Z,12.80
2019-03-21T23:45:14.970Z,13.13
2019-03-21T23:47:43.659Z,13.40
2019-03-21T23:50:13.548Z,11.28
2019-03-21T23:52:42.188Z,9.98
2019-03-21T23:55:12.100Z,16.03
2019-03-21T23:57:40.669Z,19.60
